Aviation Digital Data Service (ADDS)

Output produced by METARs form (2051 UTC 24 June 2018)
found at http://www.aviationweather.gov/adds/metars/
 
EBBE 242025Z AUTO 34006KT 9999 FEW045/// SCT055/// 15/10 Q1024 BLU
TAF EBBE 241141Z 2413/2422 34006KT 9999 SCT025 BKN035
       
EBBR 242020Z 36005KT 330V100 9999 FEW043 15/09 Q1024 NOSIG
TAF EBBR 241700Z 2418/2524 01006KT 9999 BKN045 
     TEMPO 2422/2502 BKN014 
     TEMPO 2506/2509 BKN014
       
EBCI 242020Z 35005KT 290V020 9999 FEW043 16/10 Q1024 NOSIG
TAF EBCI 241700Z 2418/2524 01006KT 9999 BKN045 
     BECMG 2422/2424 BKN014 
     PROB30 
     TEMPO 2500/2508 3500 BR BKN004 
     BECMG 2508/2510 BKN020
       
EBCV 242025Z AUTO 02009KT 9999 BKN050/// 16/10 Q1024 BLU
TAF EBCV 241541Z 2419/2507 36009KT 9999 SCT035 SCT090 
     TEMPO 2424/2507 SCT008 
     PROB30 
     TEMPO 2502/2507 3000 BR BY EBWM
       
EBAW 242020Z 34008KT 9999 BKN029 16/09 Q1024 NOSIG
TAF EBAW 242020Z 2421/2506 35006KT 9999 SCT028 
     PROB40 
     TEMPO 2422/2506 BKN008
       
EBFS 242025Z AUTO 01005KT 9999 OVC039/// 15/10 Q1024 BLU
TAF EBFS 241141Z 2413/2422 36008KT 9999 FEW030 SCT100 
     TEMPO 2413/2415 SCT030 BKN100 
     BECMG 2414/2416 SCT035 SCT200 
     BECMG 2420/2422 SCT020
       
EBBL 242025Z AUTO 35006KT 9999 OVC028/// 16/10 Q1024 BLU
EBFN 242035Z AUTO 03004KT 7000 SCT200/// SCT240/// 14/09 Q1025 WHT
TAF EBFN 241541Z 2419/2507 02006G18KT 9999 SCT015 BKN100 
     TEMPO 2419/2507 36006KT SCT025 
     TEMPO 2501/2504 01004KT 7000 BKN009
       
EBLG 242020Z 34004KT 9999 FEW038 BKN042 15/11 Q1023 NOSIG
TAF EBLG 241700Z 2418/2524 01006KT 9999 BKN045 
     BECMG 2422/2424 BKN014 
     PROB30 
     TEMPO 2500/2508 3500 BR BKN004 
     BECMG 2508/2510 BKN020
       
EBOS 242020Z 02008KT CAVOK 15/09 Q1025 NOSIG
TAF EBOS 241700Z 2418/2524 01008KT CAVOK 
     BECMG 2420/2422 SCT007 BKN010 
     PROB30 2504/2510 4000 BR BKN006 
     BECMG 2511/2513 BKN020